sensor_id;sensor_type;location;lat;lon;timestamp;pressure;altitude;pressure_sealevel;temperature
68952;BMP180;56000;51.146;17.112;2022-11-15T00:00:42;100382.20;;;4.80
68952;BMP180;56000;51.146;17.112;2022-11-15T00:03:33;100372.20;;;4.80
68952;BMP180;56000;51.146;17.112;2022-11-15T00:06:24;100366.40;;;4.80
68952;BMP180;56000;51.146;17.112;2022-11-15T00:09:15;100368.40;;;4.80
68952;BMP180;56000;51.146;17.112;2022-11-15T00:12:05;100358.80;;;4.80
68952;BMP180;56000;51.146;17.112;2022-11-15T00:14:56;100355.80;;;4.80
68952;BMP180;56000;51.146;17.112;2022-11-15T00:17:45;100352.80;;;4.80
68952;BMP180;56000;51.146;17.112;2022-11-15T00:20:39;100343.40;;;4.80
68952;BMP180;56000;51.146;17.112;2022-11-15T00:23:30;100345.20;;;4.76
68952;BMP180;56000;51.146;17.112;2022-11-15T00:26:21;100349.40;;;4.70
68952;BMP180;56000;51.146;17.112;2022-11-15T00:29:12;100343.20;;;4.70
68952;BMP180;56000;51.146;17.112;2022-11-15T00:32:01;100338.80;;;4.70
68952;BMP180;56000;51.146;17.112;2022-11-15T00:34:52;100339.20;;;4.66
68952;BMP180;56000;51.146;17.112;2022-11-15T00:37:43;100333.40;;;4.60
68952;BMP180;56000;51.146;17.112;2022-11-15T00:40:34;100336.00;;;4.60
68952;BMP180;56000;51.146;17.112;2022-11-15T00:43:25;100339.00;;;4.60
68952;BMP180;56000;51.146;17.112;2022-11-15T00:46:17;100331.80;;;4.60
68952;BMP180;56000;51.146;17.112;2022-11-15T00:49:08;100321.80;;;4.60
68952;BMP180;56000;51.146;17.112;2022-11-15T00:52:00;100319.60;;;4.60
68952;BMP180;56000;51.146;17.112;2022-11-15T00:54:51;100316.60;;;4.58
68952;BMP180;56000;51.146;17.112;2022-11-15T00:57:42;100311.40;;;4.52
68952;BMP180;56000;51.146;17.112;2022-11-15T01:00:34;100310.40;;;4.50
68952;BMP180;56000;51.146;17.112;2022-11-15T01:03:25;100308.20;;;4.50
68952;BMP180;56000;51.146;17.112;2022-11-15T01:06:16;100306.40;;;4.50
68952;BMP180;56000;51.146;17.112;2022-11-15T01:09:07;100315.40;;;4.50
68952;BMP180;56000;51.146;17.112;2022-11-15T01:11:58;100319.80;;;4.50
68952;BMP180;56000;51.146;17.112;2022-11-15T01:14:50;100329.40;;;4.40
68952;BMP180;56000;51.146;17.112;2022-11-15T01:17:45;100323.80;;;4.40
68952;BMP180;56000;51.146;17.112;2022-11-15T01:20:40;100314.80;;;4.40
68952;BMP180;56000;51.146;17.112;2022-11-15T01:23:32;100314.60;;;4.46
68952;BMP180;56000;51.146;17.112;2022-11-15T01:26:26;100313.00;;;4.40
68952;BMP180;56000;51.146;17.112;2022-11-15T01:29:18;100311.20;;;4.40
68952;BMP180;56000;51.146;17.112;2022-11-15T01:32:09;100307.20;;;4.40
68952;BMP180;56000;51.146;17.112;2022-11-15T01:35:00;100309.00;;;4.40
68952;BMP180;56000;51.146;17.112;2022-11-15T01:37:51;100307.60;;;4.38
68952;BMP180;56000;51.146;17.112;2022-11-15T01:40:43;100299.40;;;4.36
68952;BMP180;56000;51.146;17.112;2022-11-15T01:43:36;100294.00;;;4.30
68952;BMP180;56000;51.146;17.112;2022-11-15T01:46:32;100282.60;;;4.30
68952;BMP180;56000;51.146;17.112;2022-11-15T01:49:25;100288.20;;;4.30
68952;BMP180;56000;51.146;17.112;2022-11-15T01:52:21;100278.00;;;4.30
68952;BMP180;56000;51.146;17.112;2022-11-15T01:55:17;100278.00;;;4.30
68952;BMP180;56000;51.146;17.112;2022-11-15T01:58:09;100275.80;;;4.22
68952;BMP180;56000;51.146;17.112;2022-11-15T02:01:01;100268.40;;;4.20
68952;BMP180;56000;51.146;17.112;2022-11-15T02:03:56;100266.80;;;4.20
68952;BMP180;56000;51.146;17.112;2022-11-15T02:06:49;100260.60;;;4.20
68952;BMP180;56000;51.146;17.112;2022-11-15T02:09:41;100256.40;;;4.20
68952;BMP180;56000;51.146;17.112;2022-11-15T02:12:32;100257.20;;;4.20
68952;BMP180;56000;51.146;17.112;2022-11-15T02:15:26;100250.80;;;4.20
68952;BMP180;56000;51.146;17.112;2022-11-15T02:18:25;100251.40;;;4.20
68952;BMP180;56000;51.146;17.112;2022-11-15T02:21:25;100248.40;;;4.12
68952;BMP180;56000;51.146;17.112;2022-11-15T02:24:48;100250.80;;;4.12
68952;BMP180;56000;51.146;17.112;2022-11-15T02:28:13;100250.00;;;4.10
68952;BMP180;56000;51.146;17.112;2022-11-15T02:31:12;100247.60;;;4.10
68952;BMP180;56000;51.146;17.112;2022-11-15T02:34:11;100240.80;;;4.10
68952;BMP180;56000;51.146;17.112;2022-11-15T02:37:19;100243.20;;;4.10
68952;BMP180;56000;51.146;17.112;2022-11-15T02:40:17;100238.20;;;4.10
68952;BMP180;56000;51.146;17.112;2022-11-15T02:43:14;100231.40;;;4.10
68952;BMP180;56000;51.146;17.112;2022-11-15T02:46:30;100230.80;;;4.10
68952;BMP180;56000;51.146;17.112;2022-11-15T02:49:38;100232.00;;;4.00
68952;BMP180;56000;51.146;17.112;2022-11-15T02:52:30;100237.40;;;4.00
68952;BMP180;56000;51.146;17.112;2022-11-15T02:55:33;100236.40;;;4.00
68952;BMP180;56000;51.146;17.112;2022-11-15T02:58:56;100229.00;;;4.00
68952;BMP180;56000;51.146;17.112;2022-11-15T03:02:08;100225.60;;;3.90
68952;BMP180;56000;51.146;17.112;2022-11-15T03:05:11;100226.20;;;3.90
68952;BMP180;56000;51.146;17.112;2022-11-15T03:08:08;100223.40;;;3.80
68952;BMP180;56000;51.146;17.112;2022-11-15T03:11:09;100214.00;;;3.80
68952;BMP180;56000;51.146;17.112;2022-11-15T03:14:05;100215.40;;;3.70
68952;BMP180;56000;51.146;17.112;2022-11-15T03:17:05;100208.40;;;3.70
68952;BMP180;56000;51.146;17.112;2022-11-15T03:20:04;100204.80;;;3.60
68952;BMP180;56000;51.146;17.112;2022-11-15T03:23:03;100207.20;;;3.50
68952;BMP180;56000;51.146;17.112;2022-11-15T03:25:56;100209.40;;;3.50
68952;BMP180;56000;51.146;17.112;2022-11-15T03:28:52;100205.60;;;3.40
68952;BMP180;56000;51.146;17.112;2022-11-15T03:31:47;100209.00;;;3.40
68952;BMP180;56000;51.146;17.112;2022-11-15T03:34:44;100202.40;;;3.40
68952;BMP180;56000;51.146;17.112;2022-11-15T03:37:43;100198.40;;;3.30
68952;BMP180;56000;51.146;17.112;2022-11-15T03:40:40;100193.60;;;3.30
68952;BMP180;56000;51.146;17.112;2022-11-15T03:43:39;100182.20;;;3.30
68952;BMP180;56000;51.146;17.112;2022-11-15T03:46:38;100186.20;;;3.30
68952;BMP180;56000;51.146;17.112;2022-11-15T03:49:33;100184.20;;;3.30
68952;BMP180;56000;51.146;17.112;2022-11-15T03:52:25;100179.40;;;3.30
68952;BMP180;56000;51.146;17.112;2022-11-15T03:55:19;100175.20;;;3.36
68952;BMP180;56000;51.146;17.112;2022-11-15T03:58:11;100177.40;;;3.38
68952;BMP180;56000;51.146;17.112;2022-11-15T04:01:02;100176.60;;;3.38
68952;BMP180;56000;51.146;17.112;2022-11-15T04:03:53;100181.20;;;3.40
68952;BMP180;56000;51.146;17.112;2022-11-15T04:06:44;100188.20;;;3.40
68952;BMP180;56000;51.146;17.112;2022-11-15T04:09:36;100180.60;;;3.34
68952;BMP180;56000;51.146;17.112;2022-11-15T04:12:47;100186.00;;;3.30
68952;BMP180;56000;51.146;17.112;2022-11-15T04:15:38;100183.80;;;3.30
68952;BMP180;56000;51.146;17.112;2022-11-15T04:18:29;100183.00;;;3.28
68952;BMP180;56000;51.146;17.112;2022-11-15T04:21:20;100187.00;;;3.20
68952;BMP180;56000;51.146;17.112;2022-11-15T04:24:29;100177.60;;;3.20
68952;BMP180;56000;51.146;17.112;2022-11-15T04:27:21;100178.40;;;3.20
68952;BMP180;56000;51.146;17.112;2022-11-15T04:30:13;100181.20;;;3.20
68952;BMP180;56000;51.146;17.112;2022-11-15T04:33:04;100173.20;;;3.20
68952;BMP180;56000;51.146;17.112;2022-11-15T04:35:55;100179.80;;;3.20
68952;BMP180;56000;51.146;17.112;2022-11-15T04:39:04;100176.20;;;3.14
68952;BMP180;56000;51.146;17.112;2022-11-15T04:41:54;100174.00;;;3.10
68952;BMP180;56000;51.146;17.112;2022-11-15T04:44:46;100165.80;;;3.10
68952;BMP180;56000;51.146;17.112;2022-11-15T04:47:37;100156.80;;;3.14
68952;BMP180;56000;51.146;17.112;2022-11-15T04:50:28;100153.40;;;3.20
68952;BMP180;56000;51.146;17.112;2022-11-15T04:53:19;100157.20;;;3.20
68952;BMP180;56000;51.146;17.112;2022-11-15T04:56:10;100157.40;;;3.20
68952;BMP180;56000;51.146;17.112;2022-11-15T04:59:01;100161.80;;;3.20
68952;BMP180;56000;51.146;17.112;2022-11-15T05:01:52;100163.40;;;3.20
68952;BMP180;56000;51.146;17.112;2022-11-15T05:04:43;100160.00;;;3.20
68952;BMP180;56000;51.146;17.112;2022-11-15T05:07:34;100162.60;;;3.14
68952;BMP180;56000;51.146;17.112;2022-11-15T05:10:25;100167.00;;;3.10
68952;BMP180;56000;51.146;17.112;2022-11-15T05:13:16;100162.60;;;3.00
68952;BMP180;56000;51.146;17.112;2022-11-15T05:16:08;100162.00;;;3.00
68952;BMP180;56000;51.146;17.112;2022-11-15T05:18:59;100157.60;;;2.90
68952;BMP180;56000;51.146;17.112;2022-11-15T05:21:50;100148.40;;;2.82
68952;BMP180;56000;51.146;17.112;2022-11-15T05:24:41;100142.40;;;2.80
68952;BMP180;56000;51.146;17.112;2022-11-15T05:27:32;100140.00;;;2.90
68952;BMP180;56000;51.146;17.112;2022-11-15T05:30:23;100140.00;;;2.90
68952;BMP180;56000;51.146;17.112;2022-11-15T05:33:14;100143.40;;;2.90
68952;BMP180;56000;51.146;17.112;2022-11-15T05:36:09;100143.40;;;2.90
68952;BMP180;56000;51.146;17.112;2022-11-15T05:39:04;100141.40;;;2.90
68952;BMP180;56000;51.146;17.112;2022-11-15T05:42:04;100144.20;;;2.80
68952;BMP180;56000;51.146;17.112;2022-11-15T05:44:56;100139.80;;;2.80
68952;BMP180;56000;51.146;17.112;2022-11-15T05:47:48;100135.20;;;2.74
68952;BMP180;56000;51.146;17.112;2022-11-15T05:50:44;100131.60;;;2.70
68952;BMP180;56000;51.146;17.112;2022-11-15T05:53:37;100130.20;;;2.70
68952;BMP180;56000;51.146;17.112;2022-11-15T05:56:30;100131.40;;;2.70
68952;BMP180;56000;51.146;17.112;2022-11-15T05:59:21;100125.60;;;2.70
68952;BMP180;56000;51.146;17.112;2022-11-15T06:02:12;100130.20;;;2.60
68952;BMP180;56000;51.146;17.112;2022-11-15T06:05:04;100130.80;;;2.60
68952;BMP180;56000;51.146;17.112;2022-11-15T06:07:58;100137.20;;;2.60
68952;BMP180;56000;51.146;17.112;2022-11-15T06:10:49;100137.60;;;2.60
68952;BMP180;56000;51.146;17.112;2022-11-15T06:13:40;100136.00;;;2.60
68952;BMP180;56000;51.146;17.112;2022-11-15T06:16:31;100134.00;;;2.60
68952;BMP180;56000;51.146;17.112;2022-11-15T06:19:22;100141.20;;;2.60
68952;BMP180;56000;51.146;17.112;2022-11-15T06:22:14;100145.60;;;2.60
68952;BMP180;56000;51.146;17.112;2022-11-15T06:25:06;100140.60;;;2.60
68952;BMP180;56000;51.146;17.112;2022-11-15T06:27:58;100139.00;;;2.60
68952;BMP180;56000;51.146;17.112;2022-11-15T06:30:49;100137.60;;;2.60
68952;BMP180;56000;51.146;17.112;2022-11-15T06:33:42;100140.00;;;2.60
68952;BMP180;56000;51.146;17.112;2022-11-15T06:36:35;100140.00;;;2.70
68952;BMP180;56000;51.146;17.112;2022-11-15T06:39:26;100135.60;;;2.80
68952;BMP180;56000;51.146;17.112;2022-11-15T06:42:17;100136.20;;;2.82
68952;BMP180;56000;51.146;17.112;2022-11-15T06:45:10;100138.00;;;2.90
68952;BMP180;56000;51.146;17.112;2022-11-15T06:48:01;100135.60;;;3.00
68952;BMP180;56000;51.146;17.112;2022-11-15T06:50:55;100141.60;;;3.10
68952;BMP180;56000;51.146;17.112;2022-11-15T06:53:46;100146.80;;;3.10
68952;BMP180;56000;51.146;17.112;2022-11-15T06:56:38;100151.40;;;3.20
68952;BMP180;56000;51.146;17.112;2022-11-15T06:59:29;100168.80;;;3.30
68952;BMP180;56000;51.146;17.112;2022-11-15T07:02:27;100168.80;;;3.30
68952;BMP180;56000;51.146;17.112;2022-11-15T07:05:19;100166.00;;;3.40
68952;BMP180;56000;51.146;17.112;2022-11-15T07:08:10;100163.40;;;3.40
68952;BMP180;56000;51.146;17.112;2022-11-15T07:11:03;100159.80;;;3.42
68952;BMP180;56000;51.146;17.112;2022-11-15T07:13:54;100163.60;;;3.50
68952;BMP180;56000;51.146;17.112;2022-11-15T07:16:45;100158.80;;;3.72
68952;BMP180;56000;51.146;17.112;2022-11-15T07:19:36;100158.80;;;4.10
68952;BMP180;56000;51.146;17.112;2022-11-15T07:22:27;100153.00;;;4.46
68952;BMP180;56000;51.146;17.112;2022-11-15T07:25:18;100158.40;;;4.86
68952;BMP180;56000;51.146;17.112;2022-11-15T07:28:09;100159.40;;;5.30
68952;BMP180;56000;51.146;17.112;2022-11-15T07:31:03;100168.20;;;5.76
68952;BMP180;56000;51.146;17.112;2022-11-15T07:33:54;100165.00;;;6.20
68952;BMP180;56000;51.146;17.112;2022-11-15T07:36:45;100161.40;;;6.52
68952;BMP180;56000;51.146;17.112;2022-11-15T07:39:36;100151.00;;;7.06
68952;BMP180;56000;51.146;17.112;2022-11-15T07:42:27;100145.60;;;7.58
68952;BMP180;56000;51.146;17.112;2022-11-15T07:45:45;100137.80;;;8.26
68952;BMP180;56000;51.146;17.112;2022-11-15T07:48:36;100142.40;;;8.60
68952;BMP180;56000;51.146;17.112;2022-11-15T07:51:33;100139.40;;;8.90
68952;BMP180;56000;51.146;17.112;2022-11-15T07:54:24;100135.20;;;9.20
68952;BMP180;56000;51.146;17.112;2022-11-15T07:57:16;100138.60;;;9.42
68952;BMP180;56000;51.146;17.112;2022-11-15T08:00:10;100128.60;;;9.70
68952;BMP180;56000;51.146;17.112;2022-11-15T08:03:09;100134.20;;;10.02
68952;BMP180;56000;51.146;17.112;2022-11-15T08:06:00;100128.80;;;10.32
68952;BMP180;56000;51.146;17.112;2022-11-15T08:08:51;100128.80;;;10.70
68952;BMP180;56000;51.146;17.112;2022-11-15T08:11:43;100127.00;;;11.00
68952;BMP180;56000;51.146;17.112;2022-11-15T08:14:34;100122.60;;;11.20
68952;BMP180;56000;51.146;17.112;2022-11-15T08:17:25;100125.00;;;11.40
68952;BMP180;56000;51.146;17.112;2022-11-15T08:20:17;100116.00;;;11.54
68952;BMP180;56000;51.146;17.112;2022-11-15T08:23:11;100116.20;;;11.80
68952;BMP180;56000;51.146;17.112;2022-11-15T08:26:04;100108.00;;;12.10
68952;BMP180;56000;51.146;17.112;2022-11-15T08:28:55;100104.40;;;12.20
68952;BMP180;56000;51.146;17.112;2022-11-15T08:31:46;100101.40;;;12.40
68952;BMP180;56000;51.146;17.112;2022-11-15T08:34:37;100098.80;;;12.82
68952;BMP180;56000;51.146;17.112;2022-11-15T08:37:29;100099.80;;;13.22
68952;BMP180;56000;51.146;17.112;2022-11-15T08:40:20;100097.80;;;13.60
68952;BMP180;56000;51.146;17.112;2022-11-15T08:43:11;100094.40;;;13.96
68952;BMP180;56000;51.146;17.112;2022-11-15T08:46:02;100091.40;;;14.42
68952;BMP180;56000;51.146;17.112;2022-11-15T08:48:53;100098.00;;;14.90
68952;BMP180;56000;51.146;17.112;2022-11-15T08:51:44;100092.60;;;15.46
68952;BMP180;56000;51.146;17.112;2022-11-15T08:54:35;100079.80;;;15.70
68952;BMP180;56000;51.146;17.112;2022-11-15T08:57:29;100073.40;;;15.94
68952;BMP180;56000;51.146;17.112;2022-11-15T09:00:21;100075.00;;;16.30
68952;BMP180;56000;51.146;17.112;2022-11-15T09:03:12;100071.20;;;16.70
68952;BMP180;56000;51.146;17.112;2022-11-15T09:06:05;100075.80;;;17.10
68952;BMP180;56000;51.146;17.112;2022-11-15T09:08:56;100082.80;;;17.54
68952;BMP180;56000;51.146;17.112;2022-11-15T09:11:47;100087.40;;;18.10
68952;BMP180;56000;51.146;17.112;2022-11-15T09:14:40;100097.20;;;18.78
68952;BMP180;56000;51.146;17.112;2022-11-15T09:17:31;100093.80;;;19.42
68952;BMP180;56000;51.146;17.112;2022-11-15T09:20:22;100089.00;;;20.02
68952;BMP180;56000;51.146;17.112;2022-11-15T09:23:13;100093.80;;;20.60
68952;BMP180;56000;51.146;17.112;2022-11-15T09:26:06;100095.40;;;21.20
68952;BMP180;56000;51.146;17.112;2022-11-15T09:28:56;100094.00;;;21.80
68952;BMP180;56000;51.146;17.112;2022-11-15T09:31:47;100087.60;;;22.30
68952;BMP180;56000;51.146;17.112;2022-11-15T09:34:39;100085.00;;;22.76
68952;BMP180;56000;51.146;17.112;2022-11-15T09:37:30;100082.00;;;23.14
68952;BMP180;56000;51.146;17.112;2022-11-15T09:40:22;100074.60;;;23.56
68952;BMP180;56000;51.146;17.112;2022-11-15T09:43:35;100075.20;;;24.08
68952;BMP180;56000;51.146;17.112;2022-11-15T09:46:41;100073.00;;;24.70
68952;BMP180;56000;51.146;17.112;2022-11-15T09:49:32;100068.20;;;25.28
68952;BMP180;56000;51.146;17.112;2022-11-15T09:52:27;100065.00;;;25.80
68952;BMP180;56000;51.146;17.112;2022-11-15T09:55:00;100060.60;;;26.28
68952;BMP180;56000;51.146;17.112;2022-11-15T09:57:38;100061.00;;;26.76
68952;BMP180;56000;51.146;17.112;2022-11-15T10:00:19;100055.00;;;27.20
68952;BMP180;56000;51.146;17.112;2022-11-15T10:03:16;100057.20;;;27.42
68952;BMP180;56000;51.146;17.112;2022-11-15T10:05:52;100055.00;;;27.72
68952;BMP180;56000;51.146;17.112;2022-11-15T10:08:40;100047.80;;;28.00
68952;BMP180;56000;51.146;17.112;2022-11-15T10:11:20;100046.80;;;28.34
68952;BMP180;56000;51.146;17.112;2022-11-15T10:14:14;100042.80;;;28.68
68952;BMP180;56000;51.146;17.112;2022-11-15T10:20:06;100038.60;;;29.30
68952;BMP180;56000;51.146;17.112;2022-11-15T10:22:47;100033.00;;;29.50
68952;BMP180;56000;51.146;17.112;2022-11-15T10:25:23;100032.60;;;29.60
68952;BMP180;56000;51.146;17.112;2022-11-15T10:28:00;100032.80;;;29.80
68952;BMP180;56000;51.146;17.112;2022-11-15T10:30:37;100031.60;;;30.10
68952;BMP180;56000;51.146;17.112;2022-11-15T10:33:25;100031.40;;;30.42
68952;BMP180;56000;51.146;17.112;2022-11-15T10:36:21;100027.60;;;30.70
68952;BMP180;56000;51.146;17.112;2022-11-15T10:38:59;100029.80;;;31.02
68952;BMP180;56000;51.146;17.112;2022-11-15T10:41:39;100021.80;;;31.10
68952;BMP180;56000;51.146;17.112;2022-11-15T10:44:23;100022.00;;;31.10
68952;BMP180;56000;51.146;17.112;2022-11-15T10:47:25;100018.60;;;30.98
68952;BMP180;56000;51.146;17.112;2022-11-15T10:50:06;100015.20;;;30.50
68952;BMP180;56000;51.146;17.112;2022-11-15T10:52:46;100015.80;;;30.40
68952;BMP180;56000;51.146;17.112;2022-11-15T10:55:27;100017.20;;;30.48
68952;BMP180;56000;51.146;17.112;2022-11-15T10:58:19;100013.20;;;30.60
68952;BMP180;56000;51.146;17.112;2022-11-15T11:00:54;100011.00;;;30.80
68952;BMP180;56000;51.146;17.112;2022-11-15T11:03:35;100004.80;;;30.74
68952;BMP180;56000;51.146;17.112;2022-11-15T11:06:13;100001.20;;;30.42
68952;BMP180;56000;51.146;17.112;2022-11-15T11:08:59;99997.80;;;29.88
68952;BMP180;56000;51.146;17.112;2022-11-15T11:11:48;100001.20;;;29.60
68952;BMP180;56000;51.146;17.112;2022-11-15T11:14:25;100000.00;;;29.88
68952;BMP180;56000;51.146;17.112;2022-11-15T11:17:05;100003.40;;;30.10
68952;BMP180;56000;51.146;17.112;2022-11-15T11:19:56;100003.60;;;29.66
68952;BMP180;56000;51.146;17.112;2022-11-15T11:22:37;100001.20;;;27.94
68952;BMP180;56000;51.146;17.112;2022-11-15T11:25:18;99998.60;;;26.04
68952;BMP180;56000;51.146;17.112;2022-11-15T11:27:57;99996.40;;;23.84
68952;BMP180;56000;51.146;17.112;2022-11-15T11:33:27;99992.00;;;20.52
68952;BMP180;56000;51.146;17.112;2022-11-15T11:36:15;99986.40;;;19.44
68952;BMP180;56000;51.146;17.112;2022-11-15T11:39:21;99987.60;;;18.62
68952;BMP180;56000;51.146;17.112;2022-11-15T11:42:10;99987.80;;;17.70
68952;BMP180;56000;51.146;17.112;2022-11-15T11:44:57;99984.80;;;17.10
68952;BMP180;56000;51.146;17.112;2022-11-15T11:47:37;99977.60;;;16.70
68952;BMP180;56000;51.146;17.112;2022-11-15T11:50:17;99978.40;;;16.46
68952;BMP180;56000;51.146;17.112;2022-11-15T11:52:58;99970.60;;;16.20
68952;BMP180;56000;51.146;17.112;2022-11-15T11:55:38;99974.40;;;16.00
68952;BMP180;56000;51.146;17.112;2022-11-15T11:58:17;99971.40;;;15.80
68952;BMP180;56000;51.146;17.112;2022-11-15T12:00:59;99970.80;;;15.60
68952;BMP180;56000;51.146;17.112;2022-11-15T12:03:38;99968.60;;;15.40
68952;BMP180;56000;51.146;17.112;2022-11-15T12:06:23;99966.60;;;15.20
68952;BMP180;56000;51.146;17.112;2022-11-15T12:09:03;99961.40;;;15.00
68952;BMP180;56000;51.146;17.112;2022-11-15T12:11:47;99955.80;;;14.90
68952;BMP180;56000;51.146;17.112;2022-11-15T12:14:31;99954.60;;;14.90
68952;BMP180;56000;51.146;17.112;2022-11-15T12:17:05;99951.60;;;14.90
68952;BMP180;56000;51.146;17.112;2022-11-15T12:19:37;99950.60;;;14.90
68952;BMP180;56000;51.146;17.112;2022-11-15T12:22:16;99948.40;;;14.86
68952;BMP180;56000;51.146;17.112;2022-11-15T12:24:57;99944.80;;;14.80
68952;BMP180;56000;51.146;17.112;2022-11-15T12:27:36;99945.20;;;14.80
68952;BMP180;56000;51.146;17.112;2022-11-15T12:30:16;99938.20;;;14.80
68952;BMP180;56000;51.146;17.112;2022-11-15T12:32:56;99928.80;;;14.80
68952;BMP180;56000;51.146;17.112;2022-11-15T12:35:36;99920.60;;;14.82
68952;BMP180;56000;51.146;17.112;2022-11-15T12:38:12;99918.80;;;14.90
68952;BMP180;56000;51.146;17.112;2022-11-15T12:41:26;99915.20;;;14.90
68952;BMP180;56000;51.146;17.112;2022-11-15T12:44:00;99918.60;;;15.00
68952;BMP180;56000;51.146;17.112;2022-11-15T12:47:04;99914.60;;;15.00
68952;BMP180;56000;51.146;17.112;2022-11-15T12:49:47;99912.80;;;15.00
68952;BMP180;56000;51.146;17.112;2022-11-15T12:52:21;99907.60;;;15.00
68952;BMP180;56000;51.146;17.112;2022-11-15T12:55:31;99905.20;;;15.00
68952;BMP180;56000;51.146;17.112;2022-11-15T12:58:28;99902.80;;;15.00
68952;BMP180;56000;51.146;17.112;2022-11-15T13:04:23;99895.40;;;14.80
68952;BMP180;56000;51.146;17.112;2022-11-15T13:06:59;99895.20;;;14.70
68952;BMP180;56000;51.146;17.112;2022-11-15T13:09:54;99890.60;;;14.60
68952;BMP180;56000;51.146;17.112;2022-11-15T13:12:56;99887.60;;;14.50
68952;BMP180;56000;51.146;17.112;2022-11-15T13:15:56;99884.40;;;14.38
68952;BMP180;56000;51.146;17.112;2022-11-15T13:18:36;99874.80;;;14.30
68952;BMP180;56000;51.146;17.112;2022-11-15T13:21:23;99874.00;;;14.20
68952;BMP180;56000;51.146;17.112;2022-11-15T13:24:17;99875.80;;;14.20
68952;BMP180;56000;51.146;17.112;2022-11-15T13:26:50;99877.00;;;14.10
68952;BMP180;56000;51.146;17.112;2022-11-15T13:29:23;99873.20;;;14.10
68952;BMP180;56000;51.146;17.112;2022-11-15T13:31:56;99872.60;;;14.08
68952;BMP180;56000;51.146;17.112;2022-11-15T13:34:31;99871.40;;;14.00
68952;BMP180;56000;51.146;17.112;2022-11-15T13:37:34;99868.40;;;14.00
68952;BMP180;56000;51.146;17.112;2022-11-15T13:40:29;99870.00;;;14.00
68952;BMP180;56000;51.146;17.112;2022-11-15T13:43:17;99868.40;;;13.90
68952;BMP180;56000;51.146;17.112;2022-11-15T13:46:05;99872.40;;;13.90
68952;BMP180;56000;51.146;17.112;2022-11-15T13:48:38;99866.40;;;13.90
68952;BMP180;56000;51.146;17.112;2022-11-15T13:51:17;99865.20;;;13.80
68952;BMP180;56000;51.146;17.112;2022-11-15T13:53:54;99862.40;;;13.80
68952;BMP180;56000;51.146;17.112;2022-11-15T13:56:28;99863.00;;;13.80
68952;BMP180;56000;51.146;17.112;2022-11-15T13:59:10;99856.20;;;13.70
68952;BMP180;56000;51.146;17.112;2022-11-15T14:01:44;99854.60;;;13.70
68952;BMP180;56000;51.146;17.112;2022-11-15T14:04:22;99858.20;;;13.70
68952;BMP180;56000;51.146;17.112;2022-11-15T14:06:57;99854.00;;;13.60
68952;BMP180;56000;51.146;17.112;2022-11-15T14:09:37;99848.80;;;13.52
68952;BMP180;56000;51.146;17.112;2022-11-15T14:12:33;99846.40;;;13.50
68952;BMP180;56000;51.146;17.112;2022-11-15T14:15:29;99843.80;;;13.40
68952;BMP180;56000;51.146;17.112;2022-11-15T14:18:03;99841.40;;;13.30
68952;BMP180;56000;51.146;17.112;2022-11-15T14:20:40;99838.80;;;13.20
68952;BMP180;56000;51.146;17.112;2022-11-15T14:23:27;99836.40;;;13.10
68952;BMP180;56000;51.146;17.112;2022-11-15T14:26:01;99834.00;;;13.00
68952;BMP180;56000;51.146;17.112;2022-11-15T14:28:41;99833.00;;;13.00
68952;BMP180;56000;51.146;17.112;2022-11-15T14:31:15;99833.60;;;12.90
68952;BMP180;56000;51.146;17.112;2022-11-15T14:33:48;99830.40;;;12.80
68952;BMP180;56000;51.146;17.112;2022-11-15T14:36:22;99827.00;;;12.74
68952;BMP180;56000;51.146;17.112;2022-11-15T14:38:54;99825.00;;;12.70
68952;BMP180;56000;51.146;17.112;2022-11-15T14:41:28;99822.00;;;12.60
68952;BMP180;56000;51.146;17.112;2022-11-15T14:44:04;99814.40;;;12.60
68952;BMP180;56000;51.146;17.112;2022-11-15T14:46:36;99807.00;;;12.60
68952;BMP180;56000;51.146;17.112;2022-11-15T14:49:09;99804.60;;;12.50
68952;BMP180;56000;51.146;17.112;2022-11-15T14:51:44;99804.00;;;12.50
68952;BMP180;56000;51.146;17.112;2022-11-15T14:54:17;99795.60;;;12.50
68952;BMP180;56000;51.146;17.112;2022-11-15T14:56:50;99797.20;;;12.40
68952;BMP180;56000;51.146;17.112;2022-11-15T14:59:22;99795.20;;;12.32
68952;BMP180;56000;51.146;17.112;2022-11-15T15:01:55;99794.40;;;12.22
68952;BMP180;56000;51.146;17.112;2022-11-15T15:04:27;99798.00;;;12.20
68952;BMP180;56000;51.146;17.112;2022-11-15T15:07:00;99793.20;;;12.10
68952;BMP180;56000;51.146;17.112;2022-11-15T15:09:33;99793.80;;;12.00
68952;BMP180;56000;51.146;17.112;2022-11-15T15:12:08;99792.20;;;12.00
68952;BMP180;56000;51.146;17.112;2022-11-15T15:14:44;99788.00;;;11.98
68952;BMP180;56000;51.146;17.112;2022-11-15T15:17:17;99795.20;;;11.90
68952;BMP180;56000;51.146;17.112;2022-11-15T15:19:50;99792.00;;;11.90
68952;BMP180;56000;51.146;17.112;2022-11-15T15:22:23;99787.20;;;11.80
68952;BMP180;56000;51.146;17.112;2022-11-15T15:24:58;99785.80;;;11.80
68952;BMP180;56000;51.146;17.112;2022-11-15T15:27:31;99784.60;;;11.76
68952;BMP180;56000;51.146;17.112;2022-11-15T15:30:05;99787.60;;;11.70
68952;BMP180;56000;51.146;17.112;2022-11-15T15:32:37;99787.00;;;11.60
68952;BMP180;56000;51.146;17.112;2022-11-15T15:35:12;99789.00;;;11.40
68952;BMP180;56000;51.146;17.112;2022-11-15T15:37:47;99787.40;;;11.30
68952;BMP180;56000;51.146;17.112;2022-11-15T15:40:22;99785.80;;;11.16
68952;BMP180;56000;51.146;17.112;2022-11-15T15:42:55;99782.20;;;11.00
68952;BMP180;56000;51.146;17.112;2022-11-15T15:45:28;99780.60;;;10.80
68952;BMP180;56000;51.146;17.112;2022-11-15T15:48:01;99776.80;;;10.70
68952;BMP180;56000;51.146;17.112;2022-11-15T15:50:36;99769.80;;;10.54
68952;BMP180;56000;51.146;17.112;2022-11-15T15:53:10;99773.60;;;10.40
68952;BMP180;56000;51.146;17.112;2022-11-15T15:55:43;99770.40;;;10.30
68952;BMP180;56000;51.146;17.112;2022-11-15T15:58:16;99775.00;;;10.12
68952;BMP180;56000;51.146;17.112;2022-11-15T16:00:48;99773.60;;;10.00
68952;BMP180;56000;51.146;17.112;2022-11-15T16:03:21;99769.60;;;9.90